sensor_id;sensor_type;location;lat;lon;timestamp;P1;durP1;ratioP1;P2;durP2;ratioP2
41705;SDS011;27385;51.096;17.190;2022-08-06T00:00:03;8.90;;;2.50;;
41705;SDS011;27385;51.096;17.190;2022-08-06T00:02:55;7.30;;;2.20;;
41705;SDS011;27385;51.096;17.190;2022-08-06T00:05:27;7.80;;;2.70;;
41705;SDS011;27385;51.096;17.190;2022-08-06T00:07:58;10.10;;;2.70;;
41705;SDS011;27385;51.096;17.190;2022-08-06T00:10:29;8.90;;;2.30;;
41705;SDS011;27385;51.096;17.190;2022-08-06T00:13:00;8.20;;;2.70;;
41705;SDS011;27385;51.096;17.190;2022-08-06T00:15:32;8.50;;;2.60;;
41705;SDS011;27385;51.096;17.190;2022-08-06T00:18:04;8.90;;;2.50;;
41705;SDS011;27385;51.096;17.190;2022-08-06T00:20:35;7.80;;;2.20;;
41705;SDS011;27385;51.096;17.190;2022-08-06T00:23:07;8.10;;;2.50;;
41705;SDS011;27385;51.096;17.190;2022-08-06T00:25:38;8.00;;;2.60;;
41705;SDS011;27385;51.096;17.190;2022-08-06T00:28:09;5.80;;;1.80;;
41705;SDS011;27385;51.096;17.190;2022-08-06T00:30:40;6.80;;;2.40;;
41705;SDS011;27385;51.096;17.190;2022-08-06T00:33:11;5.90;;;1.90;;
41705;SDS011;27385;51.096;17.190;2022-08-06T00:35:45;9.20;;;2.30;;
41705;SDS011;27385;51.096;17.190;2022-08-06T00:38:16;8.60;;;2.40;;
41705;SDS011;27385;51.096;17.190;2022-08-06T00:40:48;7.70;;;2.60;;
41705;SDS011;27385;51.096;17.190;2022-08-06T00:43:20;8.00;;;2.50;;
41705;SDS011;27385;51.096;17.190;2022-08-06T00:45:52;6.30;;;2.30;;
41705;SDS011;27385;51.096;17.190;2022-08-06T00:48:23;7.00;;;2.60;;
41705;SDS011;27385;51.096;17.190;2022-08-06T00:50:54;6.30;;;2.20;;
41705;SDS011;27385;51.096;17.190;2022-08-06T00:53:26;8.00;;;2.70;;
41705;SDS011;27385;51.096;17.190;2022-08-06T00:55:58;8.30;;;2.80;;
41705;SDS011;27385;51.096;17.190;2022-08-06T00:58:30;8.70;;;3.10;;
41705;SDS011;27385;51.096;17.190;2022-08-06T01:01:01;7.20;;;2.90;;
41705;SDS011;27385;51.096;17.190;2022-08-06T01:03:32;7.80;;;2.70;;
41705;SDS011;27385;51.096;17.190;2022-08-06T01:06:03;7.60;;;2.70;;
41705;SDS011;27385;51.096;17.190;2022-08-06T01:08:35;9.30;;;2.70;;
41705;SDS011;27385;51.096;17.190;2022-08-06T01:11:06;8.70;;;2.80;;
41705;SDS011;27385;51.096;17.190;2022-08-06T01:13:38;7.50;;;2.70;;
41705;SDS011;27385;51.096;17.190;2022-08-06T01:16:12;10.70;;;2.70;;
41705;SDS011;27385;51.096;17.190;2022-08-06T01:18:55;7.60;;;2.70;;
41705;SDS011;27385;51.096;17.190;2022-08-06T01:21:39;8.10;;;2.80;;
41705;SDS011;27385;51.096;17.190;2022-08-06T01:24:43;9.90;;;2.90;;
41705;SDS011;27385;51.096;17.190;2022-08-06T01:30:12;8.10;;;2.70;;
41705;SDS011;27385;51.096;17.190;2022-08-06T01:32:47;8.20;;;3.20;;
41705;SDS011;27385;51.096;17.190;2022-08-06T01:35:22;9.70;;;3.30;;
41705;SDS011;27385;51.096;17.190;2022-08-06T01:37:59;9.60;;;3.20;;
41705;SDS011;27385;51.096;17.190;2022-08-06T01:40:36;11.10;;;2.80;;
41705;SDS011;27385;51.096;17.190;2022-08-06T01:43:09;8.10;;;3.00;;
41705;SDS011;27385;51.096;17.190;2022-08-06T01:45:45;10.30;;;3.10;;
41705;SDS011;27385;51.096;17.190;2022-08-06T01:48:21;9.30;;;3.00;;
41705;SDS011;27385;51.096;17.190;2022-08-06T01:50:55;9.70;;;3.50;;
41705;SDS011;27385;51.096;17.190;2022-08-06T01:53:32;7.70;;;3.00;;
41705;SDS011;27385;51.096;17.190;2022-08-06T01:56:06;9.70;;;3.40;;
41705;SDS011;27385;51.096;17.190;2022-08-06T01:58:41;9.70;;;3.20;;
41705;SDS011;27385;51.096;17.190;2022-08-06T02:01:15;8.20;;;2.60;;
41705;SDS011;27385;51.096;17.190;2022-08-06T02:03:49;10.30;;;3.60;;
41705;SDS011;27385;51.096;17.190;2022-08-06T02:06:24;10.00;;;3.20;;
41705;SDS011;27385;51.096;17.190;2022-08-06T02:09:02;9.50;;;3.70;;
41705;SDS011;27385;51.096;17.190;2022-08-06T02:11:37;12.90;;;5.00;;
41705;SDS011;27385;51.096;17.190;2022-08-06T02:14:12;11.90;;;5.00;;
41705;SDS011;27385;51.096;17.190;2022-08-06T02:16:44;13.30;;;5.80;;
41705;SDS011;27385;51.096;17.190;2022-08-06T02:19:17;16.40;;;6.40;;
41705;SDS011;27385;51.096;17.190;2022-08-06T02:21:50;18.10;;;6.70;;
41705;SDS011;27385;51.096;17.190;2022-08-06T02:24:23;12.10;;;6.40;;
41705;SDS011;27385;51.096;17.190;2022-08-06T02:26:55;16.20;;;8.10;;
41705;SDS011;27385;51.096;17.190;2022-08-06T02:29:31;15.90;;;7.00;;
41705;SDS011;27385;51.096;17.190;2022-08-06T02:32:04;14.90;;;7.60;;
41705;SDS011;27385;51.096;17.190;2022-08-06T02:34:35;15.10;;;7.10;;
41705;SDS011;27385;51.096;17.190;2022-08-06T02:37:07;14.20;;;6.50;;
41705;SDS011;27385;51.096;17.190;2022-08-06T02:39:44;13.50;;;6.00;;
41705;SDS011;27385;51.096;17.190;2022-08-06T02:42:22;16.70;;;6.20;;
41705;SDS011;27385;51.096;17.190;2022-08-06T02:44:59;12.20;;;5.40;;
41705;SDS011;27385;51.096;17.190;2022-08-06T02:47:35;12.50;;;5.20;;
41705;SDS011;27385;51.096;17.190;2022-08-06T02:50:11;13.20;;;5.70;;
41705;SDS011;27385;51.096;17.190;2022-08-06T02:52:47;12.60;;;4.70;;
41705;SDS011;27385;51.096;17.190;2022-08-06T02:55:23;12.80;;;5.10;;
41705;SDS011;27385;51.096;17.190;2022-08-06T02:57:59;13.20;;;5.40;;
41705;SDS011;27385;51.096;17.190;2022-08-06T03:00:52;11.80;;;5.00;;
41705;SDS011;27385;51.096;17.190;2022-08-06T03:03:27;13.00;;;4.30;;
41705;SDS011;27385;51.096;17.190;2022-08-06T03:06:00;13.50;;;4.80;;
41705;SDS011;27385;51.096;17.190;2022-08-06T03:08:35;11.40;;;4.30;;
41705;SDS011;27385;51.096;17.190;2022-08-06T03:11:07;10.60;;;4.20;;
41705;SDS011;27385;51.096;17.190;2022-08-06T03:13:40;13.00;;;3.80;;
41705;SDS011;27385;51.096;17.190;2022-08-06T03:16:14;10.20;;;3.40;;
41705;SDS011;27385;51.096;17.190;2022-08-06T03:18:47;9.30;;;3.30;;
41705;SDS011;27385;51.096;17.190;2022-08-06T03:21:21;11.20;;;3.30;;
41705;SDS011;27385;51.096;17.190;2022-08-06T03:23:53;8.10;;;2.50;;
41705;SDS011;27385;51.096;17.190;2022-08-06T03:26:27;9.60;;;3.00;;
41705;SDS011;27385;51.096;17.190;2022-08-06T03:29:01;10.60;;;2.80;;
41705;SDS011;27385;51.096;17.190;2022-08-06T03:31:33;8.80;;;2.70;;
41705;SDS011;27385;51.096;17.190;2022-08-06T03:34:05;12.80;;;3.70;;
41705;SDS011;27385;51.096;17.190;2022-08-06T03:36:38;8.90;;;3.10;;
41705;SDS011;27385;51.096;17.190;2022-08-06T03:39:10;11.40;;;3.60;;
41705;SDS011;27385;51.096;17.190;2022-08-06T03:41:43;8.30;;;3.10;;
41705;SDS011;27385;51.096;17.190;2022-08-06T03:44:16;10.30;;;3.50;;
41705;SDS011;27385;51.096;17.190;2022-08-06T03:46:58;10.20;;;3.40;;
41705;SDS011;27385;51.096;17.190;2022-08-06T03:49:33;9.70;;;2.90;;
41705;SDS011;27385;51.096;17.190;2022-08-06T03:52:09;6.10;;;2.00;;
41705;SDS011;27385;51.096;17.190;2022-08-06T03:54:47;5.90;;;1.50;;
41705;SDS011;27385;51.096;17.190;2022-08-06T03:57:25;5.80;;;1.70;;
41705;SDS011;27385;51.096;17.190;2022-08-06T04:00:02;6.10;;;1.60;;
41705;SDS011;27385;51.096;17.190;2022-08-06T04:02:38;6.20;;;1.40;;
41705;SDS011;27385;51.096;17.190;2022-08-06T04:05:14;4.40;;;1.30;;
41705;SDS011;27385;51.096;17.190;2022-08-06T04:07:48;4.70;;;1.20;;
41705;SDS011;27385;51.096;17.190;2022-08-06T04:10:21;6.00;;;1.10;;
41705;SDS011;27385;51.096;17.190;2022-08-06T04:12:55;4.10;;;1.10;;
41705;SDS011;27385;51.096;17.190;2022-08-06T04:15:28;2.90;;;0.80;;
41705;SDS011;27385;51.096;17.190;2022-08-06T04:17:59;2.30;;;0.90;;
41705;SDS011;27385;51.096;17.190;2022-08-06T04:20:30;3.70;;;1.00;;
41705;SDS011;27385;51.096;17.190;2022-08-06T04:23:03;4.60;;;0.90;;
41705;SDS011;27385;51.096;17.190;2022-08-06T04:25:38;2.90;;;0.80;;
41705;SDS011;27385;51.096;17.190;2022-08-06T04:28:23;2.90;;;0.80;;
41705;SDS011;27385;51.096;17.190;2022-08-06T04:30:56;3.80;;;1.00;;
41705;SDS011;27385;51.096;17.190;2022-08-06T04:33:30;4.40;;;1.00;;
41705;SDS011;27385;51.096;17.190;2022-08-06T04:36:03;3.10;;;0.80;;
41705;SDS011;27385;51.096;17.190;2022-08-06T04:38:36;2.80;;;0.70;;
41705;SDS011;27385;51.096;17.190;2022-08-06T04:41:09;2.20;;;0.70;;
41705;SDS011;27385;51.096;17.190;2022-08-06T04:43:42;3.20;;;0.70;;
41705;SDS011;27385;51.096;17.190;2022-08-06T04:46:14;4.40;;;1.10;;
41705;SDS011;27385;51.096;17.190;2022-08-06T04:48:46;5.70;;;1.20;;
41705;SDS011;27385;51.096;17.190;2022-08-06T04:51:17;6.10;;;1.30;;
41705;SDS011;27385;51.096;17.190;2022-08-06T04:53:50;7.20;;;1.80;;
41705;SDS011;27385;51.096;17.190;2022-08-06T04:56:21;6.40;;;1.70;;
41705;SDS011;27385;51.096;17.190;2022-08-06T04:58:52;7.20;;;1.70;;
41705;SDS011;27385;51.096;17.190;2022-08-06T05:01:24;7.20;;;1.30;;
41705;SDS011;27385;51.096;17.190;2022-08-06T05:03:55;5.90;;;0.90;;
41705;SDS011;27385;51.096;17.190;2022-08-06T05:06:29;7.60;;;1.20;;
41705;SDS011;27385;51.096;17.190;2022-08-06T05:09:07;3.30;;;1.00;;
41705;SDS011;27385;51.096;17.190;2022-08-06T05:11:43;4.70;;;0.90;;
41705;SDS011;27385;51.096;17.190;2022-08-06T05:14:21;3.10;;;0.80;;
41705;SDS011;27385;51.096;17.190;2022-08-06T05:16:58;4.70;;;0.90;;
41705;SDS011;27385;51.096;17.190;2022-08-06T05:19:33;5.00;;;0.70;;
41705;SDS011;27385;51.096;17.190;2022-08-06T05:22:07;5.00;;;0.70;;
41705;SDS011;27385;51.096;17.190;2022-08-06T05:24:42;4.30;;;0.90;;
41705;SDS011;27385;51.096;17.190;2022-08-06T05:27:15;4.20;;;1.10;;
41705;SDS011;27385;51.096;17.190;2022-08-06T05:29:46;3.70;;;0.90;;
41705;SDS011;27385;51.096;17.190;2022-08-06T05:32:17;3.40;;;1.00;;
41705;SDS011;27385;51.096;17.190;2022-08-06T05:34:50;6.00;;;1.00;;
41705;SDS011;27385;51.096;17.190;2022-08-06T05:37:22;5.80;;;1.10;;
41705;SDS011;27385;51.096;17.190;2022-08-06T05:39:53;7.80;;;1.20;;
41705;SDS011;27385;51.096;17.190;2022-08-06T05:42:24;6.10;;;0.80;;
41705;SDS011;27385;51.096;17.190;2022-08-06T05:44:55;4.40;;;1.20;;
41705;SDS011;27385;51.096;17.190;2022-08-06T05:47:27;8.90;;;1.20;;
41705;SDS011;27385;51.096;17.190;2022-08-06T05:50:06;6.00;;;1.10;;
41705;SDS011;27385;51.096;17.190;2022-08-06T05:52:45;6.90;;;1.20;;
41705;SDS011;27385;51.096;17.190;2022-08-06T05:55:23;5.10;;;1.30;;
41705;SDS011;27385;51.096;17.190;2022-08-06T05:57:59;8.30;;;1.50;;
41705;SDS011;27385;51.096;17.190;2022-08-06T06:00:33;9.30;;;1.50;;
41705;SDS011;27385;51.096;17.190;2022-08-06T06:03:07;7.40;;;1.40;;
41705;SDS011;27385;51.096;17.190;2022-08-06T06:05:40;8.00;;;1.40;;
41705;SDS011;27385;51.096;17.190;2022-08-06T06:08:12;4.30;;;1.20;;
41705;SDS011;27385;51.096;17.190;2022-08-06T06:10:46;3.60;;;1.10;;
41705;SDS011;27385;51.096;17.190;2022-08-06T06:13:17;5.60;;;1.50;;
41705;SDS011;27385;51.096;17.190;2022-08-06T06:15:53;7.30;;;1.50;;
41705;SDS011;27385;51.096;17.190;2022-08-06T06:18:33;5.80;;;1.40;;
41705;SDS011;27385;51.096;17.190;2022-08-06T06:21:19;7.20;;;1.60;;
41705;SDS011;27385;51.096;17.190;2022-08-06T06:24:00;6.90;;;1.50;;
41705;SDS011;27385;51.096;17.190;2022-08-06T06:26:39;5.70;;;1.20;;
41705;SDS011;27385;51.096;17.190;2022-08-06T06:29:20;5.40;;;1.40;;
41705;SDS011;27385;51.096;17.190;2022-08-06T06:32:05;5.70;;;1.30;;
41705;SDS011;27385;51.096;17.190;2022-08-06T06:34:48;5.50;;;1.40;;
41705;SDS011;27385;51.096;17.190;2022-08-06T06:37:26;6.80;;;1.30;;
41705;SDS011;27385;51.096;17.190;2022-08-06T06:40:09;5.20;;;1.40;;
41705;SDS011;27385;51.096;17.190;2022-08-06T06:42:48;10.60;;;1.80;;
41705;SDS011;27385;51.096;17.190;2022-08-06T06:45:29;8.20;;;1.50;;
41705;SDS011;27385;51.096;17.190;2022-08-06T06:48:06;5.90;;;2.10;;
41705;SDS011;27385;51.096;17.190;2022-08-06T06:50:44;7.00;;;1.70;;
41705;SDS011;27385;51.096;17.190;2022-08-06T06:53:18;7.00;;;1.70;;
41705;SDS011;27385;51.096;17.190;2022-08-06T06:55:56;7.40;;;2.00;;
41705;SDS011;27385;51.096;17.190;2022-08-06T06:58:30;7.70;;;1.50;;
41705;SDS011;27385;51.096;17.190;2022-08-06T07:01:06;6.00;;;1.60;;
41705;SDS011;27385;51.096;17.190;2022-08-06T07:03:41;4.30;;;1.60;;
41705;SDS011;27385;51.096;17.190;2022-08-06T07:06:15;5.80;;;1.90;;
41705;SDS011;27385;51.096;17.190;2022-08-06T07:08:49;6.30;;;1.90;;
41705;SDS011;27385;51.096;17.190;2022-08-06T07:11:22;8.30;;;2.10;;
41705;SDS011;27385;51.096;17.190;2022-08-06T07:13:55;9.00;;;2.20;;
41705;SDS011;27385;51.096;17.190;2022-08-06T07:16:28;5.80;;;1.90;;
41705;SDS011;27385;51.096;17.190;2022-08-06T07:19:03;6.30;;;1.80;;
41705;SDS011;27385;51.096;17.190;2022-08-06T07:21:35;7.70;;;2.50;;
41705;SDS011;27385;51.096;17.190;2022-08-06T07:24:08;8.40;;;1.80;;
41705;SDS011;27385;51.096;17.190;2022-08-06T07:26:42;6.00;;;2.00;;
41705;SDS011;27385;51.096;17.190;2022-08-06T07:29:16;6.80;;;2.10;;
41705;SDS011;27385;51.096;17.190;2022-08-06T07:31:48;9.10;;;2.10;;
41705;SDS011;27385;51.096;17.190;2022-08-06T07:34:22;11.20;;;2.40;;
41705;SDS011;27385;51.096;17.190;2022-08-06T07:36:54;7.60;;;1.90;;
41705;SDS011;27385;51.096;17.190;2022-08-06T07:39:27;6.10;;;1.80;;
41705;SDS011;27385;51.096;17.190;2022-08-06T07:42:05;7.70;;;2.10;;
41705;SDS011;27385;51.096;17.190;2022-08-06T07:44:43;8.20;;;1.90;;
41705;SDS011;27385;51.096;17.190;2022-08-06T07:47:18;9.40;;;2.20;;
41705;SDS011;27385;51.096;17.190;2022-08-06T07:49:53;8.60;;;1.90;;
41705;SDS011;27385;51.096;17.190;2022-08-06T07:52:26;7.50;;;2.40;;
41705;SDS011;27385;51.096;17.190;2022-08-06T07:54:59;8.10;;;2.50;;
41705;SDS011;27385;51.096;17.190;2022-08-06T07:57:31;8.60;;;2.60;;
41705;SDS011;27385;51.096;17.190;2022-08-06T08:00:04;9.00;;;2.40;;
41705;SDS011;27385;51.096;17.190;2022-08-06T08:02:37;9.00;;;2.40;;
41705;SDS011;27385;51.096;17.190;2022-08-06T08:05:29;6.10;;;2.10;;
41705;SDS011;27385;51.096;17.190;2022-08-06T08:08:19;8.80;;;2.00;;
41705;SDS011;27385;51.096;17.190;2022-08-06T08:10:52;9.30;;;2.60;;
41705;SDS011;27385;51.096;17.190;2022-08-06T08:13:24;9.70;;;2.40;;
41705;SDS011;27385;51.096;17.190;2022-08-06T08:15:57;8.00;;;2.70;;
41705;SDS011;27385;51.096;17.190;2022-08-06T08:18:31;9.40;;;2.10;;
41705;SDS011;27385;51.096;17.190;2022-08-06T08:21:02;6.70;;;2.20;;
41705;SDS011;27385;51.096;17.190;2022-08-06T08:23:35;5.30;;;1.70;;
41705;SDS011;27385;51.096;17.190;2022-08-06T08:26:09;7.60;;;2.40;;
41705;SDS011;27385;51.096;17.190;2022-08-06T08:28:40;8.10;;;2.30;;
41705;SDS011;27385;51.096;17.190;2022-08-06T08:31:12;7.40;;;1.90;;
41705;SDS011;27385;51.096;17.190;2022-08-06T08:33:44;7.70;;;2.00;;
41705;SDS011;27385;51.096;17.190;2022-08-06T08:36:15;8.60;;;2.20;;
41705;SDS011;27385;51.096;17.190;2022-08-06T08:38:48;6.90;;;1.90;;
41705;SDS011;27385;51.096;17.190;2022-08-06T08:41:25;5.00;;;1.90;;
41705;SDS011;27385;51.096;17.190;2022-08-06T08:43:59;7.70;;;2.30;;
41705;SDS011;27385;51.096;17.190;2022-08-06T08:46:33;4.80;;;1.90;;
41705;SDS011;27385;51.096;17.190;2022-08-06T08:49:16;6.90;;;1.40;;
41705;SDS011;27385;51.096;17.190;2022-08-06T08:51:49;9.40;;;1.80;;
41705;SDS011;27385;51.096;17.190;2022-08-06T08:54:23;5.90;;;1.80;;
41705;SDS011;27385;51.096;17.190;2022-08-06T08:56:58;6.70;;;1.80;;
41705;SDS011;27385;51.096;17.190;2022-08-06T08:59:30;5.70;;;1.50;;
41705;SDS011;27385;51.096;17.190;2022-08-06T09:02:03;4.30;;;1.40;;
41705;SDS011;27385;51.096;17.190;2022-08-06T09:04:36;4.80;;;1.50;;
41705;SDS011;27385;51.096;17.190;2022-08-06T09:07:08;8.70;;;2.00;;
41705;SDS011;27385;51.096;17.190;2022-08-06T09:09:41;5.60;;;1.60;;
41705;SDS011;27385;51.096;17.190;2022-08-06T09:12:12;5.00;;;1.90;;
41705;SDS011;27385;51.096;17.190;2022-08-06T09:14:43;6.20;;;1.70;;
41705;SDS011;27385;51.096;17.190;2022-08-06T09:17:15;5.20;;;1.60;;
41705;SDS011;27385;51.096;17.190;2022-08-06T09:19:46;5.00;;;1.60;;
41705;SDS011;27385;51.096;17.190;2022-08-06T09:22:18;5.80;;;1.50;;
41705;SDS011;27385;51.096;17.190;2022-08-06T09:24:49;9.70;;;2.70;;
41705;SDS011;27385;51.096;17.190;2022-08-06T09:27:20;5.70;;;1.60;;
41705;SDS011;27385;51.096;17.190;2022-08-06T09:29:52;9.70;;;2.00;;
41705;SDS011;27385;51.096;17.190;2022-08-06T09:32:37;7.10;;;2.00;;
41705;SDS011;27385;51.096;17.190;2022-08-06T09:35:18;5.50;;;1.40;;
41705;SDS011;27385;51.096;17.190;2022-08-06T09:37:59;6.10;;;1.60;;
41705;SDS011;27385;51.096;17.190;2022-08-06T09:40:32;5.90;;;1.60;;
41705;SDS011;27385;51.096;17.190;2022-08-06T09:43:03;5.80;;;1.80;;
41705;SDS011;27385;51.096;17.190;2022-08-06T09:45:34;6.60;;;1.80;;
41705;SDS011;27385;51.096;17.190;2022-08-06T09:48:13;5.30;;;1.80;;
41705;SDS011;27385;51.096;17.190;2022-08-06T09:50:44;7.10;;;1.90;;
41705;SDS011;27385;51.096;17.190;2022-08-06T09:53:16;6.30;;;1.70;;
41705;SDS011;27385;51.096;17.190;2022-08-06T09:55:49;6.60;;;1.70;;
41705;SDS011;27385;51.096;17.190;2022-08-06T09:58:31;5.40;;;1.70;;
41705;SDS011;27385;51.096;17.190;2022-08-06T10:01:12;7.50;;;1.80;;
41705;SDS011;27385;51.096;17.190;2022-08-06T10:03:45;6.30;;;1.70;;
41705;SDS011;27385;51.096;17.190;2022-08-06T10:06:17;6.10;;;1.40;;
41705;SDS011;27385;51.096;17.190;2022-08-06T10:08:50;5.10;;;1.80;;
41705;SDS011;27385;51.096;17.190;2022-08-06T10:11:35;7.70;;;1.70;;
41705;SDS011;27385;51.096;17.190;2022-08-06T10:14:19;6.50;;;2.10;;
41705;SDS011;27385;51.096;17.190;2022-08-06T10:17:05;6.60;;;1.60;;
41705;SDS011;27385;51.096;17.190;2022-08-06T10:19:39;5.40;;;1.80;;
41705;SDS011;27385;51.096;17.190;2022-08-06T10:22:12;5.40;;;1.60;;
41705;SDS011;27385;51.096;17.190;2022-08-06T10:24:45;6.00;;;1.40;;
41705;SDS011;27385;51.096;17.190;2022-08-06T10:27:21;4.40;;;1.20;;
41705;SDS011;27385;51.096;17.190;2022-08-06T10:29:55;5.40;;;1.10;;
41705;SDS011;27385;51.096;17.190;2022-08-06T10:32:31;5.60;;;1.30;;
41705;SDS011;27385;51.096;17.190;2022-08-06T10:35:06;4.60;;;1.20;;
41705;SDS011;27385;51.096;17.190;2022-08-06T10:37:41;4.30;;;1.10;;
41705;SDS011;27385;51.096;17.190;2022-08-06T10:40:15;3.90;;;1.30;;
41705;SDS011;27385;51.096;17.190;2022-08-06T10:42:49;6.00;;;1.30;;
41705;SDS011;27385;51.096;17.190;2022-08-06T10:45:22;6.30;;;1.30;;
41705;SDS011;27385;51.096;17.190;2022-08-06T10:47:55;4.10;;;1.20;;
41705;SDS011;27385;51.096;17.190;2022-08-06T10:50:27;3.60;;;1.10;;
41705;SDS011;27385;51.096;17.190;2022-08-06T10:52:59;4.90;;;1.10;;
41705;SDS011;27385;51.096;17.190;2022-08-06T10:55:33;6.90;;;1.00;;
41705;SDS011;27385;51.096;17.190;2022-08-06T10:58:05;5.80;;;1.20;;
41705;SDS011;27385;51.096;17.190;2022-08-06T11:00:38;2.80;;;1.00;;
41705;SDS011;27385;51.096;17.190;2022-08-06T11:03:15;4.60;;;1.10;;
41705;SDS011;27385;51.096;17.190;2022-08-06T11:05:52;4.00;;;1.10;;
41705;SDS011;27385;51.096;17.190;2022-08-06T11:08:35;2.70;;;0.90;;
41705;SDS011;27385;51.096;17.190;2022-08-06T11:11:22;6.60;;;1.00;;
41705;SDS011;27385;51.096;17.190;2022-08-06T11:14:01;2.30;;;0.90;;
41705;SDS011;27385;51.096;17.190;2022-08-06T11:16:36;5.00;;;1.00;;
41705;SDS011;27385;51.096;17.190;2022-08-06T11:19:08;3.80;;;1.10;;
41705;SDS011;27385;51.096;17.190;2022-08-06T11:21:42;4.80;;;1.10;;
41705;SDS011;27385;51.096;17.190;2022-08-06T11:24:14;2.30;;;0.90;;
41705;SDS011;27385;51.096;17.190;2022-08-06T11:26:45;3.00;;;0.90;;
41705;SDS011;27385;51.096;17.190;2022-08-06T11:29:16;3.00;;;0.80;;
41705;SDS011;27385;51.096;17.190;2022-08-06T11:31:48;1.30;;;0.50;;
41705;SDS011;27385;51.096;17.190;2022-08-06T11:34:20;3.70;;;0.80;;
41705;SDS011;27385;51.096;17.190;2022-08-06T11:37:09;2.60;;;0.70;;
41705;SDS011;27385;51.096;17.190;2022-08-06T11:42:46;5.00;;;0.60;;
41705;SDS011;27385;51.096;17.190;2022-08-06T11:45:18;2.10;;;0.50;;
41705;SDS011;27385;51.096;17.190;2022-08-06T11:48:06;4.30;;;0.50;;
41705;SDS011;27385;51.096;17.190;2022-08-06T11:50:37;7.00;;;0.70;;
41705;SDS011;27385;51.096;17.190;2022-08-06T11:53:08;2.40;;;0.60;;
41705;SDS011;27385;51.096;17.190;2022-08-06T11:55:55;3.30;;;0.60;;
41705;SDS011;27385;51.096;17.190;2022-08-06T11:58:33;5.10;;;0.60;;
41705;SDS011;27385;51.096;17.190;2022-08-06T12:01:05;1.60;;;0.50;;
41705;SDS011;27385;51.096;17.190;2022-08-06T12:03:37;4.40;;;0.50;;
41705;SDS011;27385;51.096;17.190;2022-08-06T12:06:23;1.80;;;0.50;;
41705;SDS011;27385;51.096;17.190;2022-08-06T12:09:08;2.10;;;0.50;;
41705;SDS011;27385;51.096;17.190;2022-08-06T12:11:41;2.10;;;0.40;;
41705;SDS011;27385;51.096;17.190;2022-08-06T12:17:11;2.20;;;0.40;;
41705;SDS011;27385;51.096;17.190;2022-08-06T12:19:44;2.10;;;0.40;;
41705;SDS011;27385;51.096;17.190;2022-08-06T12:22:16;1.90;;;0.30;;
41705;SDS011;27385;51.096;17.190;2022-08-06T12:24:50;2.00;;;0.40;;
41705;SDS011;27385;51.096;17.190;2022-08-06T12:27:23;3.40;;;0.40;;
41705;SDS011;27385;51.096;17.190;2022-08-06T12:29:59;3.30;;;0.50;;
41705;SDS011;27385;51.096;17.190;2022-08-06T12:32:32;2.90;;;0.40;;
41705;SDS011;27385;51.096;17.190;2022-08-06T12:35:08;4.00;;;0.40;;
41705;SDS011;27385;51.096;17.190;2022-08-06T12:37:42;2.40;;;0.30;;
41705;SDS011;27385;51.096;17.190;2022-08-06T12:40:15;4.90;;;0.40;;
41705;SDS011;27385;51.096;17.190;2022-08-06T12:43:07;2.10;;;0.40;;
41705;SDS011;27385;51.096;17.190;2022-08-06T12:45:40;1.50;;;0.30;;
41705;SDS011;27385;51.096;17.190;2022-08-06T12:48:12;1.60;;;0.40;;
41705;SDS011;27385;51.096;17.190;2022-08-06T12:50:43;2.10;;;0.40;;
41705;SDS011;27385;51.096;17.190;2022-08-06T12:53:15;3.80;;;0.40;;
41705;SDS011;27385;51.096;17.190;2022-08-06T12:55:48;1.60;;;0.50;;
41705;SDS011;27385;51.096;17.190;2022-08-06T12:58:22;1.00;;;0.30;;
41705;SDS011;27385;51.096;17.190;2022-08-06T13:00:58;4.40;;;0.60;;
41705;SDS011;27385;51.096;17.190;2022-08-06T13:03:31;5.10;;;0.60;;
41705;SDS011;27385;51.096;17.190;2022-08-06T13:06:05;2.50;;;0.30;;
41705;SDS011;27385;51.096;17.190;2022-08-06T13:08:38;2.90;;;0.60;;
41705;SDS011;27385;51.096;17.190;2022-08-06T13:11:10;1.50;;;0.40;;
41705;SDS011;27385;51.096;17.190;2022-08-06T13:13:42;2.90;;;0.50;;
41705;SDS011;27385;51.096;17.190;2022-08-06T13:16:17;5.70;;;0.40;;
41705;SDS011;27385;51.096;17.190;2022-08-06T13:21:35;2.60;;;0.40;;
41705;SDS011;27385;51.096;17.190;2022-08-06T13:24:07;1.70;;;0.40;;
41705;SDS011;27385;51.096;17.190;2022-08-06T13:26:50;3.00;;;0.30;;
41705;SDS011;27385;51.096;17.190;2022-08-06T13:29:23;5.80;;;0.40;;
41705;SDS011;27385;51.096;17.190;2022-08-06T13:31:59;5.10;;;0.70;;
41705;SDS011;27385;51.096;17.190;2022-08-06T13:34:45;1.90;;;0.40;;
41705;SDS011;27385;51.096;17.190;2022-08-06T13:40:15;3.60;;;0.30;;
41705;SDS011;27385;51.096;17.190;2022-08-06T13:42:52;2.20;;;0.20;;
41705;SDS011;27385;51.096;17.190;2022-08-06T13:45:25;4.10;;;0.30;;
41705;SDS011;27385;51.096;17.190;2022-08-06T13:48:05;2.00;;;0.30;;
41705;SDS011;27385;51.096;17.190;2022-08-06T13:50:38;0.90;;;0.30;;
41705;SDS011;27385;51.096;17.190;2022-08-06T13:53:12;2.90;;;0.40;;
41705;SDS011;27385;51.096;17.190;2022-08-06T13:55:43;5.20;;;0.50;;
41705;SDS011;27385;51.096;17.190;2022-08-06T13:58:14;2.50;;;0.50;;
41705;SDS011;27385;51.096;17.190;2022-08-06T14:00:45;1.80;;;0.30;;
41705;SDS011;27385;51.096;17.190;2022-08-06T14:03:17;1.90;;;0.30;;
41705;SDS011;27385;51.096;17.190;2022-08-06T14:05:48;1.90;;;0.40;;
41705;SDS011;27385;51.096;17.190;2022-08-06T14:08:21;2.40;;;0.60;;
41705;SDS011;27385;51.096;17.190;2022-08-06T14:10:52;5.80;;;0.40;;
41705;SDS011;27385;51.096;17.190;2022-08-06T14:13:23;1.40;;;0.40;;
41705;SDS011;27385;51.096;17.190;2022-08-06T14:15:55;3.10;;;0.30;;
41705;SDS011;27385;51.096;17.190;2022-08-06T14:18:29;3.10;;;0.40;;
41705;SDS011;27385;51.096;17.190;2022-08-06T14:21:00;2.80;;;0.30;;
41705;SDS011;27385;51.096;17.190;2022-08-06T14:23:32;1.70;;;0.40;;
41705;SDS011;27385;51.096;17.190;2022-08-06T14:26:03;2.00;;;0.50;;
41705;SDS011;27385;51.096;17.190;2022-08-06T14:28:35;2.30;;;0.30;;
41705;SDS011;27385;51.096;17.190;2022-08-06T14:31:06;2.10;;;0.30;;
41705;SDS011;27385;51.096;17.190;2022-08-06T14:33:38;3.10;;;0.40;;
41705;SDS011;27385;51.096;17.190;2022-08-06T14:36:11;1.70;;;0.30;;
41705;SDS011;27385;51.096;17.190;2022-08-06T14:38:42;1.80;;;0.40;;
41705;SDS011;27385;51.096;17.190;2022-08-06T14:41:14;1.90;;;0.30;;
41705;SDS011;27385;51.096;17.190;2022-08-06T14:44:03;1.60;;;0.30;;
41705;SDS011;27385;51.096;17.190;2022-08-06T14:46:51;5.40;;;0.30;;
41705;SDS011;27385;51.096;17.190;2022-08-06T14:49:23;1.70;;;0.30;;
41705;SDS011;27385;51.096;17.190;2022-08-06T14:51:54;0.90;;;0.30;;
41705;SDS011;27385;51.096;17.190;2022-08-06T14:54:25;3.40;;;0.40;;
41705;SDS011;27385;51.096;17.190;2022-08-06T14:56:57;1.00;;;0.30;;
41705;SDS011;27385;51.096;17.190;2022-08-06T14:59:28;1.80;;;0.40;;
41705;SDS011;27385;51.096;17.190;2022-08-06T15:02:00;1.20;;;0.40;;
41705;SDS011;27385;51.096;17.190;2022-08-06T15:04:31;1.70;;;0.40;;
41705;SDS011;27385;51.096;17.190;2022-08-06T15:07:02;2.90;;;0.50;;
41705;SDS011;27385;51.096;17.190;2022-08-06T15:09:34;1.90;;;0.40;;
41705;SDS011;27385;51.096;17.190;2022-08-06T15:12:06;4.50;;;0.60;;
41705;SDS011;27385;51.096;17.190;2022-08-06T15:14:37;3.90;;;0.40;;
41705;SDS011;27385;51.096;17.190;2022-08-06T15:17:08;2.10;;;0.50;;
41705;SDS011;27385;51.096;17.190;2022-08-06T15:19:40;1.50;;;0.30;;
41705;SDS011;27385;51.096;17.190;2022-08-06T15:22:11;4.10;;;0.50;;
41705;SDS011;27385;51.096;17.190;2022-08-06T15:24:42;5.30;;;0.30;;
41705;SDS011;27385;51.096;17.190;2022-08-06T15:27:13;1.70;;;0.30;;
41705;SDS011;27385;51.096;17.190;2022-08-06T15:29:48;2.80;;;0.40;;